createdAt,value
2018-09-30T00:02:02.929Z,17.03
2018-09-30T00:04:30.045Z,11.93
2018-09-30T00:06:57.204Z,13.53
2018-09-30T00:09:28.321Z,13.13
2018-09-30T00:11:55.460Z,12.27
2018-09-30T00:14:22.620Z,12.33
2018-09-30T00:16:49.744Z,12.50
2018-09-30T00:19:16.870Z,13.33
2018-09-30T00:21:44.137Z,14.37
2018-09-30T00:24:16.948Z,12.57
2018-09-30T00:26:49.854Z,14.00
2018-09-30T00:29:17.013Z,13.20
2018-09-30T00:31:44.108Z,11.70
2018-09-30T00:34:17.122Z,11.67
2018-09-30T00:36:44.213Z,11.07
2018-09-30T00:39:11.336Z,14.90
2018-09-30T00:41:38.549Z,15.90
2018-09-30T00:44:05.737Z,10.67
2018-09-30T00:46:32.973Z,9.97
2018-09-30T00:49:00.196Z,11.10
2018-09-30T00:51:27.384Z,10.80
2018-09-30T00:53:54.488Z,13.70
2018-09-30T00:56:21.773Z,13.17
2018-09-30T00:58:48.885Z,12.70
2018-09-30T01:01:16.020Z,10.20
2018-09-30T01:03:43.280Z,12.13
2018-09-30T01:06:10.428Z,16.83
2018-09-30T01:08:37.541Z,14.27
2018-09-30T01:11:04.968Z,12.17
2018-09-30T01:13:32.100Z,14.17
2018-09-30T01:15:59.260Z,13.60
2018-09-30T01:18:26.536Z,12.20
2018-09-30T01:20:53.684Z,11.83
2018-09-30T01:23:20.936Z,11.90
2018-09-30T01:25:48.176Z,10.57
2018-09-30T01:28:15.338Z,11.90
2018-09-30T01:36:38.291Z,9.97
2018-09-30T01:39:06.552Z,9.27
2018-09-30T01:41:33.751Z,13.43
2018-09-30T01:44:01.125Z,12.07
2018-09-30T01:46:28.309Z,13.40
2018-09-30T01:48:55.539Z,10.97
2018-09-30T01:51:22.828Z,9.27
2018-09-30T01:53:50.020Z,11.23
2018-09-30T01:56:17.216Z,9.83
2018-09-30T01:58:44.448Z,10.03
2018-09-30T02:01:11.739Z,10.43
2018-09-30T02:03:38.897Z,10.10
2018-09-30T02:06:06.234Z,10.77
2018-09-30T02:08:33.528Z,8.77
2018-09-30T02:11:00.685Z,10.57
2018-09-30T02:13:27.896Z,9.13
2018-09-30T02:15:55.092Z,11.30
2018-09-30T02:18:22.294Z,9.50
2018-09-30T02:20:49.525Z,13.20
2018-09-30T02:23:16.700Z,12.80
2018-09-30T02:25:43.888Z,10.23
2018-09-30T02:28:11.164Z,10.00
2018-09-30T02:30:38.325Z,11.90
2018-09-30T02:33:05.537Z,9.93
2018-09-30T02:35:32.825Z,10.43
2018-09-30T02:37:59.985Z,9.83
2018-09-30T02:40:27.158Z,10.57
2018-09-30T02:42:54.410Z,11.10
2018-09-30T02:45:21.668Z,9.83
2018-09-30T02:47:48.817Z,11.87
2018-09-30T02:50:16.046Z,13.47
2018-09-30T02:52:43.233Z,9.57
2018-09-30T02:55:10.401Z,10.13
2018-09-30T02:57:37.779Z,8.87
2018-09-30T03:00:04.981Z,9.73
2018-09-30T03:02:32.209Z,9.07
2018-09-30T03:04:59.521Z,11.40
2018-09-30T03:07:32.446Z,8.63
2018-09-30T03:09:59.758Z,10.83
2018-09-30T03:12:26.936Z,12.17
2018-09-30T03:14:54.131Z,11.60
2018-09-30T03:17:21.349Z,9.43
2018-09-30T03:19:48.507Z,11.47
2018-09-30T03:22:15.726Z,8.37
2018-09-30T03:24:42.959Z,11.67
2018-09-30T03:27:10.155Z,8.90
2018-09-30T03:29:37.357Z,8.93
2018-09-30T03:32:04.849Z,11.53
2018-09-30T03:34:32.089Z,13.90
2018-09-30T03:36:59.271Z,9.83
2018-09-30T03:39:26.589Z,10.30
2018-09-30T03:41:53.748Z,10.17
2018-09-30T03:44:20.957Z,12.33
2018-09-30T03:46:48.402Z,10.07
2018-09-30T03:49:15.541Z,12.63
2018-09-30T03:51:42.700Z,13.13
2018-09-30T03:54:09.973Z,12.50
2018-09-30T03:56:37.159Z,8.30
2018-09-30T03:59:04.318Z,9.80
2018-09-30T04:01:31.534Z,11.30
2018-09-30T04:03:58.737Z,8.93
2018-09-30T04:06:25.954Z,10.00
2018-09-30T04:08:53.164Z,11.07
2018-09-30T04:11:20.381Z,10.00
2018-09-30T04:13:47.535Z,12.27
2018-09-30T04:16:14.841Z,10.83
2018-09-30T04:18:42.036Z,9.23
2018-09-30T04:21:09.256Z,8.50
2018-09-30T04:23:36.544Z,7.57
2018-09-30T04:26:03.712Z,8.33
2018-09-30T04:28:30.892Z,7.60
2018-09-30T04:30:58.137Z,10.03
2018-09-30T04:33:25.408Z,9.70
2018-09-30T04:35:52.589Z,8.03
2018-09-30T04:38:19.897Z,9.03
2018-09-30T04:40:47.092Z,8.30
2018-09-30T04:43:14.270Z,7.80
2018-09-30T04:45:41.513Z,7.13
2018-09-30T04:48:08.699Z,7.80
2018-09-30T04:50:35.873Z,7.87
2018-09-30T04:53:03.106Z,9.43
2018-09-30T04:55:30.284Z,7.57
2018-09-30T04:57:57.454Z,9.80
2018-09-30T05:00:24.678Z,8.93
2018-09-30T05:02:51.969Z,7.77
2018-09-30T05:05:19.161Z,8.33
2018-09-30T05:07:46.496Z,7.97
2018-09-30T05:10:13.687Z,7.70
2018-09-30T05:12:40.900Z,9.30
2018-09-30T05:15:08.180Z,12.33
2018-09-30T05:17:35.581Z,8.23
2018-09-30T05:20:02.780Z,10.70
2018-09-30T05:22:30.140Z,9.07
2018-09-30T05:24:57.311Z,8.20
2018-09-30T05:27:24.571Z,9.90
2018-09-30T05:29:51.833Z,10.40
2018-09-30T05:32:19.133Z,7.73
2018-09-30T05:34:46.400Z,7.93
2018-09-30T05:37:13.784Z,7.70
2018-09-30T05:39:40.912Z,9.63
2018-09-30T05:42:08.142Z,11.90
2018-09-30T05:44:35.349Z,12.20
2018-09-30T05:47:02.516Z,8.90
2018-09-30T05:49:29.884Z,11.07
2018-09-30T05:51:57.197Z,8.83
2018-09-30T05:54:24.368Z,9.27
2018-09-30T05:56:51.544Z,11.63
2018-09-30T05:59:18.748Z,8.53
2018-09-30T06:01:45.929Z,8.47
2018-09-30T06:04:13.113Z,8.47
2018-09-30T06:06:40.409Z,10.17
2018-09-30T06:09:10.676Z,16.37
2018-09-30T06:11:37.841Z,9.50
2018-09-30T06:14:05.372Z,9.57
2018-09-30T06:16:32.476Z,9.20
2018-09-30T06:18:59.680Z,11.13
2018-09-30T06:21:26.925Z,9.03
2018-09-30T06:23:54.172Z,8.67
2018-09-30T06:26:21.349Z,10.83
2018-09-30T06:28:48.577Z,8.30
2018-09-30T06:31:17.803Z,9.30
2018-09-30T06:33:44.973Z,8.10
2018-09-30T06:36:12.280Z,8.70
2018-09-30T06:38:39.484Z,8.87
2018-09-30T06:41:07.096Z,7.10
2018-09-30T06:43:34.388Z,10.20
2018-09-30T06:46:01.652Z,7.70
2018-09-30T06:48:29.962Z,9.23
2018-09-30T06:50:57.309Z,8.77
2018-09-30T06:53:24.564Z,7.73
2018-09-30T06:55:51.788Z,9.97
2018-09-30T06:58:19.261Z,6.47
2018-09-30T07:00:46.646Z,7.70
2018-09-30T07:03:13.789Z,7.53
2018-09-30T07:05:41.635Z,5.07
2018-09-30T07:08:08.849Z,8.07
2018-09-30T07:10:37.949Z,5.27
2018-09-30T07:13:05.380Z,6.23
2018-09-30T07:15:32.613Z,6.60
2018-09-30T07:18:00.160Z,8.83
2018-09-30T07:20:27.689Z,6.80
2018-09-30T07:22:54.912Z,8.03
2018-09-30T07:25:22.061Z,6.33
2018-09-30T07:27:49.263Z,7.87
2018-09-30T07:30:16.437Z,7.20
2018-09-30T07:32:43.586Z,6.73
2018-09-30T07:35:10.852Z,6.03
2018-09-30T07:37:38.037Z,6.83
2018-09-30T07:40:05.346Z,5.80
2018-09-30T07:42:32.634Z,6.27
2018-09-30T07:44:59.876Z,9.13
2018-09-30T07:47:27.338Z,5.80
2018-09-30T07:49:54.562Z,6.23
2018-09-30T07:52:21.782Z,5.93
2018-09-30T07:54:49.065Z,7.40
2018-09-30T07:57:16.456Z,5.33
2018-09-30T07:59:43.651Z,5.83
2018-09-30T08:02:10.822Z,5.30
2018-09-30T08:04:38.117Z,5.50
2018-09-30T08:07:05.408Z,5.83
2018-09-30T08:09:32.566Z,5.13
2018-09-30T08:11:59.918Z,6.77
2018-09-30T08:14:27.114Z,6.70
2018-09-30T08:16:54.373Z,8.50
2018-09-30T08:19:21.528Z,10.03
2018-09-30T08:21:48.716Z,7.40
2018-09-30T08:24:15.983Z,6.27
2018-09-30T08:26:43.169Z,6.80
2018-09-30T08:29:10.356Z,6.57
2018-09-30T08:31:37.529Z,5.97
2018-09-30T08:34:04.841Z,6.40
2018-09-30T08:36:32.067Z,4.83
2018-09-30T08:38:59.228Z,4.63
2018-09-30T08:41:28.252Z,3.97
2018-09-30T08:43:55.530Z,4.93
2018-09-30T08:46:23.738Z,6.60
2018-09-30T08:48:51.031Z,5.77
2018-09-30T08:51:18.245Z,3.67
2018-09-30T08:53:45.477Z,5.03
2018-09-30T08:56:12.795Z,4.37
2018-09-30T08:58:43.577Z,8.63
2018-09-30T09:01:11.916Z,4.57
2018-09-30T09:03:39.142Z,6.97
2018-09-30T09:06:06.364Z,3.90
2018-09-30T09:08:33.727Z,6.27
2018-09-30T09:11:00.921Z,5.00
2018-09-30T09:13:29.171Z,4.50
2018-09-30T09:15:56.408Z,4.23
2018-09-30T09:18:23.633Z,3.20
2018-09-30T09:20:51.818Z,6.13
2018-09-30T09:23:19.012Z,4.10
2018-09-30T09:25:46.170Z,6.27
2018-09-30T09:28:13.396Z,4.53
2018-09-30T09:30:40.794Z,4.40
2018-09-30T09:33:08.130Z,5.13
2018-09-30T09:35:35.259Z,5.43
2018-09-30T09:38:02.447Z,5.43
2018-09-30T09:40:29.607Z,7.67
2018-09-30T09:42:56.787Z,4.93
2018-09-30T09:45:24.094Z,5.43
2018-09-30T09:47:52.931Z,5.40
2018-09-30T09:50:20.163Z,4.07
2018-09-30T09:52:50.028Z,5.30
2018-09-30T09:55:17.362Z,5.13
2018-09-30T09:57:44.560Z,5.03
2018-09-30T10:00:16.321Z,4.27
2018-09-30T10:02:43.479Z,3.63
2018-09-30T10:05:10.773Z,5.13
2018-09-30T10:07:37.945Z,3.37
2018-09-30T10:10:05.149Z,5.50
2018-09-30T10:12:32.361Z,5.20
2018-09-30T10:14:59.622Z,6.43
2018-09-30T10:17:27.816Z,3.37
2018-09-30T10:19:55.068Z,3.53
2018-09-30T10:22:22.370Z,5.20
2018-09-30T10:24:49.565Z,5.10
2018-09-30T10:27:16.758Z,3.87
2018-09-30T10:29:43.948Z,3.17
2018-09-30T10:32:11.101Z,5.17
2018-09-30T10:34:38.248Z,6.67
2018-09-30T10:37:05.500Z,4.10
2018-09-30T10:39:32.774Z,4.13
2018-09-30T10:41:59.977Z,5.07
2018-09-30T10:44:27.197Z,4.77
2018-09-30T10:46:54.366Z,3.00
2018-09-30T10:49:21.632Z,4.00
2018-09-30T10:51:48.861Z,4.17
2018-09-30T10:54:19.415Z,5.93
2018-09-30T10:56:46.882Z,4.07
2018-09-30T10:59:15.017Z,5.17
2018-09-30T11:02:01.105Z,6.77
2018-09-30T11:04:37.125Z,4.30
2018-09-30T11:07:05.410Z,3.17
2018-09-30T11:09:35.049Z,5.73
2018-09-30T11:12:02.436Z,2.77
2018-09-30T11:14:29.945Z,3.87
2018-09-30T11:16:59.355Z,5.83
2018-09-30T11:19:26.530Z,3.87
2018-09-30T11:21:53.832Z,4.60
2018-09-30T11:24:21.077Z,3.67
2018-09-30T11:26:48.768Z,5.27
2018-09-30T11:29:15.947Z,5.30
2018-09-30T11:31:43.195Z,4.30
2018-09-30T11:34:10.416Z,3.67
2018-09-30T11:36:37.652Z,5.40
2018-09-30T11:39:07.856Z,3.37
2018-09-30T11:41:35.040Z,3.83
2018-09-30T11:44:02.243Z,5.23
2018-09-30T11:46:29.524Z,4.50
2018-09-30T11:48:56.825Z,5.43
2018-09-30T11:51:24.042Z,5.17
2018-09-30T11:53:51.413Z,3.77
2018-09-30T11:56:18.615Z,4.07
2018-09-30T11:58:45.781Z,2.90
2018-09-30T12:01:13.256Z,4.47
2018-09-30T12:03:40.435Z,6.43
2018-09-30T12:06:07.634Z,3.30
2018-09-30T12:08:34.969Z,6.17
2018-09-30T12:11:02.150Z,3.57
2018-09-30T12:13:29.477Z,2.07
2018-09-30T12:15:56.881Z,3.67
2018-09-30T12:18:24.120Z,3.77
2018-09-30T12:20:51.378Z,3.40
2018-09-30T12:23:18.961Z,3.97
2018-09-30T12:25:46.161Z,5.07
2018-09-30T12:28:13.308Z,3.90
2018-09-30T12:30:40.612Z,5.57
2018-09-30T12:33:07.793Z,4.83
2018-09-30T12:35:34.947Z,5.17
2018-09-30T12:38:02.157Z,3.43
2018-09-30T12:40:29.371Z,7.33
2018-09-30T12:42:56.510Z,3.63
2018-09-30T12:45:23.821Z,5.73
2018-09-30T12:47:50.995Z,4.63
2018-09-30T12:50:18.191Z,3.27
2018-09-30T12:52:45.419Z,3.23
2018-09-30T12:55:12.756Z,5.27
2018-09-30T12:57:39.941Z,4.60
2018-09-30T13:00:08.041Z,2.67
2018-09-30T13:02:36.196Z,4.73
2018-09-30T13:05:03.411Z,3.13
2018-09-30T13:07:30.614Z,4.20
2018-09-30T13:09:58.089Z,3.77
2018-09-30T13:12:25.670Z,4.60
2018-09-30T13:14:53.121Z,4.60
2018-09-30T13:17:20.564Z,4.33
2018-09-30T13:19:47.672Z,3.80
2018-09-30T13:22:14.846Z,6.40
2018-09-30T13:24:42.017Z,3.97
2018-09-30T13:27:09.205Z,3.97
2018-09-30T13:29:36.517Z,4.47
2018-09-30T13:32:03.616Z,5.60
2018-09-30T13:34:32.193Z,6.17
2018-09-30T13:36:59.424Z,3.63
2018-09-30T13:39:26.554Z,3.83
2018-09-30T13:41:53.849Z,4.50
2018-09-30T13:44:21.240Z,3.50
2018-09-30T13:46:48.416Z,3.77
2018-09-30T13:49:15.550Z,4.50
2018-09-30T13:51:42.809Z,4.07
2018-09-30T13:54:09.948Z,4.93
2018-09-30T13:56:37.162Z,3.97
2018-09-30T13:59:04.530Z,2.63
2018-09-30T14:01:31.647Z,4.93
2018-09-30T14:03:58.851Z,2.20
2018-09-30T14:06:28.784Z,4.20
2018-09-30T14:08:55.893Z,3.03
2018-09-30T14:11:23.044Z,3.50
2018-09-30T14:13:51.016Z,5.27
2018-09-30T14:16:18.379Z,2.33
2018-09-30T14:18:45.518Z,4.60
2018-09-30T14:21:12.797Z,3.77
2018-09-30T14:23:39.972Z,2.77
2018-09-30T14:26:07.172Z,3.77
2018-09-30T14:28:34.341Z,4.30
2018-09-30T14:31:01.485Z,4.20
2018-09-30T14:33:31.233Z,4.50
2018-09-30T14:35:58.508Z,3.70
2018-09-30T14:38:26.249Z,2.90
2018-09-30T14:40:53.467Z,2.27
2018-09-30T14:45:59.501Z,3.30
2018-09-30T14:48:26.703Z,4.23
2018-09-30T14:50:54.213Z,3.57
2018-09-30T14:53:21.880Z,3.67
2018-09-30T14:55:49.005Z,3.67
2018-09-30T14:58:16.172Z,2.27
2018-09-30T15:00:43.480Z,2.93
2018-09-30T15:03:10.607Z,3.37
2018-09-30T15:05:37.757Z,3.83
2018-09-30T15:08:05.201Z,2.17
2018-09-30T15:10:32.316Z,3.53
2018-09-30T15:12:59.473Z,3.40
2018-09-30T15:15:26.733Z,3.77
2018-09-30T15:17:53.859Z,4.03
2018-09-30T15:20:21.020Z,3.13
2018-09-30T15:22:48.264Z,3.93
2018-09-30T15:25:15.437Z,3.00
2018-09-30T15:27:42.790Z,4.07
2018-09-30T15:30:10.013Z,3.97
2018-09-30T15:32:37.161Z,4.10
2018-09-30T15:35:04.287Z,3.17
2018-09-30T15:37:31.512Z,4.37
2018-09-30T15:39:58.637Z,3.00
2018-09-30T15:42:25.796Z,3.60
2018-09-30T15:44:53.106Z,3.83
2018-09-30T15:47:20.380Z,3.60
2018-09-30T15:49:47.557Z,2.87
2018-09-30T15:52:14.893Z,3.10
2018-09-30T15:54:42.089Z,5.13
2018-09-30T15:57:09.285Z,3.67
2018-09-30T15:59:36.577Z,4.17
2018-09-30T16:02:03.735Z,4.03
2018-09-30T16:04:30.974Z,4.03
2018-09-30T16:06:58.834Z,3.53
2018-09-30T16:09:26.113Z,5.30
2018-09-30T16:11:53.280Z,3.20
2018-09-30T16:14:20.925Z,2.97
2018-09-30T16:16:48.125Z,2.70
2018-09-30T16:19:15.309Z,2.63
2018-09-30T16:21:42.534Z,6.17
2018-09-30T16:24:09.715Z,5.47
2018-09-30T16:26:36.904Z,7.37
2018-09-30T16:29:04.238Z,3.83
2018-09-30T16:31:31.400Z,2.67
2018-09-30T16:33:58.550Z,2.20
2018-09-30T16:36:25.836Z,4.53
2018-09-30T16:38:52.973Z,3.37
2018-09-30T16:41:20.269Z,2.47
2018-09-30T16:43:47.429Z,3.03
2018-09-30T16:46:14.655Z,2.90
2018-09-30T16:48:41.804Z,4.17
2018-09-30T16:51:09.097Z,4.50
2018-09-30T16:53:36.369Z,3.13
2018-09-30T16:56:03.932Z,4.07
2018-09-30T16:58:31.116Z,5.03
2018-09-30T17:00:58.268Z,2.73
2018-09-30T17:03:25.425Z,2.87
2018-09-30T17:05:52.764Z,3.97
2018-09-30T17:08:19.911Z,5.00
2018-09-30T17:10:47.101Z,9.83
2018-09-30T17:13:14.289Z,5.70
2018-09-30T17:15:41.461Z,5.83
2018-09-30T17:18:08.640Z,7.47
2018-09-30T17:20:35.931Z,11.77
2018-09-30T17:23:03.062Z,17.27
2018-09-30T17:25:30.238Z,21.10
2018-09-30T17:27:57.604Z,17.53
2018-09-30T17:30:24.763Z,16.47
2018-09-30T17:32:51.959Z,25.10
2018-09-30T17:35:19.179Z,18.30
2018-09-30T17:37:46.320Z,15.37
2018-09-30T17:40:13.444Z,16.67
2018-09-30T17:42:40.585Z,12.00
2018-09-30T17:45:07.837Z,13.30
2018-09-30T17:47:34.979Z,10.63
2018-09-30T17:50:02.276Z,13.60
2018-09-30T17:52:29.402Z,9.80
2018-09-30T17:54:56.525Z,14.67
2018-09-30T17:57:23.917Z,11.10
2018-09-30T17:59:51.060Z,9.83
2018-09-30T18:02:18.196Z,13.00
2018-09-30T18:04:45.388Z,10.20
2018-09-30T18:07:12.557Z,13.37
2018-09-30T18:09:39.679Z,11.93
2018-09-30T18:12:06.860Z,11.73
2018-09-30T18:14:33.969Z,13.57
2018-09-30T18:17:01.172Z,13.63
2018-09-30T18:19:28.864Z,8.93
2018-09-30T18:21:55.989Z,13.27
2018-09-30T18:24:23.116Z,14.47
2018-09-30T18:26:50.348Z,13.60
2018-09-30T18:29:17.568Z,16.77
2018-09-30T18:31:45.068Z,14.87
2018-09-30T18:34:12.340Z,19.80
2018-09-30T18:36:39.428Z,17.37
2018-09-30T18:39:07.892Z,19.90
2018-09-30T18:41:35.184Z,23.23
2018-09-30T18:44:02.776Z,23.33
2018-09-30T18:46:29.897Z,29.90
2018-09-30T18:48:57.156Z,31.53
2018-09-30T18:51:24.300Z,25.63
2018-09-30T18:53:51.907Z,25.80
2018-09-30T18:56:19.612Z,27.33
2018-09-30T18:58:47.429Z,21.53
2018-09-30T19:01:14.552Z,21.63
2018-09-30T19:03:41.700Z,20.93
2018-09-30T19:06:09.048Z,20.20
2018-09-30T19:08:36.837Z,18.60
2018-09-30T19:11:04.087Z,20.60
2018-09-30T19:13:31.232Z,18.93
2018-09-30T19:15:58.426Z,16.97
2018-09-30T19:18:25.903Z,16.00
2018-09-30T19:20:53.465Z,21.37
2018-09-30T19:23:20.564Z,19.17
2018-09-30T19:25:47.708Z,17.57
2018-09-30T19:28:14.812Z,20.70
2018-09-30T19:30:41.922Z,20.77
2018-09-30T19:33:09.143Z,26.67
2018-09-30T19:35:36.250Z,33.13
2018-09-30T19:38:03.344Z,39.90
2018-09-30T19:40:30.883Z,36.00
2018-09-30T19:42:58.049Z,38.80
2018-09-30T19:45:25.145Z,37.33
2018-09-30T19:47:52.348Z,40.07
2018-09-30T19:50:19.467Z,38.33
2018-09-30T19:52:46.570Z,34.53
2018-09-30T19:55:13.707Z,36.63
2018-09-30T19:57:40.845Z,34.57
2018-09-30T20:00:08.038Z,32.97
2018-09-30T20:02:35.195Z,34.97
2018-09-30T20:05:02.489Z,34.27
2018-09-30T20:07:29.636Z,35.00
2018-09-30T20:09:56.850Z,34.93
2018-09-30T20:12:24.052Z,35.67
2018-09-30T20:14:51.190Z,36.07
2018-09-30T20:17:18.380Z,33.13
2018-09-30T20:19:45.524Z,34.07
2018-09-30T20:22:12.681Z,34.97
2018-09-30T20:24:40.182Z,33.17
2018-09-30T20:27:07.884Z,34.97
2018-09-30T20:29:35.444Z,30.17
2018-09-30T20:32:02.624Z,31.70
2018-09-30T20:34:29.809Z,31.03
2018-09-30T20:36:57.021Z,30.20
2018-09-30T20:39:24.228Z,35.53
2018-09-30T20:41:51.372Z,29.33
2018-09-30T20:44:18.489Z,28.90
2018-09-30T20:46:45.700Z,27.93
2018-09-30T20:49:12.801Z,28.60
2018-09-30T20:51:39.931Z,26.13
2018-09-30T20:54:07.081Z,25.47
2018-09-30T20:56:34.252Z,24.90
2018-09-30T20:59:01.393Z,25.60
2018-09-30T21:01:28.575Z,26.87
2018-09-30T21:03:55.699Z,28.13
2018-09-30T21:06:25.188Z,32.43
2018-09-30T21:08:52.351Z,33.13
2018-09-30T21:11:19.491Z,29.80
2018-09-30T21:13:46.762Z,30.83
2018-09-30T21:16:14.472Z,27.60
2018-09-30T21:18:42.074Z,28.03
2018-09-30T21:21:09.240Z,30.13
2018-09-30T21:23:36.400Z,29.40
2018-09-30T21:26:03.527Z,29.13
2018-09-30T21:28:30.685Z,28.60
2018-09-30T21:30:57.919Z,28.73
2018-09-30T21:33:25.201Z,26.23
2018-09-30T21:35:52.433Z,25.03
2018-09-30T21:38:19.852Z,27.03
2018-09-30T21:40:47.095Z,27.20
2018-09-30T21:43:14.260Z,23.17
2018-09-30T21:45:41.835Z,23.50
2018-09-30T21:48:08.941Z,24.70
2018-09-30T21:50:36.070Z,23.73
2018-09-30T21:53:03.272Z,23.50
2018-09-30T21:55:30.392Z,25.27
2018-09-30T21:57:57.516Z,21.97
2018-09-30T22:00:30.760Z,21.40
2018-09-30T22:02:57.885Z,21.77
2018-09-30T22:05:25.092Z,22.03
2018-09-30T22:07:52.380Z,23.30
2018-09-30T22:10:19.520Z,23.27
2018-09-30T22:12:46.867Z,21.37
2018-09-30T22:15:14.136Z,21.73
2018-09-30T22:17:41.271Z,26.20
2018-09-30T22:20:08.419Z,22.60
2018-09-30T22:22:35.573Z,22.97
2018-09-30T22:25:02.750Z,24.20
2018-09-30T22:27:29.911Z,20.73
2018-09-30T22:29:57.089Z,22.60
2018-09-30T22:32:24.292Z,23.10
2018-09-30T22:34:51.409Z,20.93
2018-09-30T22:37:18.736Z,17.20
2018-09-30T22:39:45.853Z,17.97
2018-09-30T22:42:12.979Z,18.60
2018-09-30T22:44:40.156Z,21.67
2018-09-30T22:47:07.311Z,19.90
2018-09-30T22:49:34.449Z,21.80
2018-09-30T22:52:01.591Z,19.77
2018-09-30T22:54:28.704Z,21.07
2018-09-30T22:56:55.849Z,21.27
2018-09-30T22:59:23.031Z,22.27
2018-09-30T23:01:50.168Z,24.70
2018-09-30T23:04:17.304Z,25.83
2018-09-30T23:06:44.561Z,21.73
2018-09-30T23:09:11.682Z,22.87
2018-09-30T23:11:38.779Z,21.47
2018-09-30T23:14:06.401Z,25.47
2018-09-30T23:16:33.645Z,23.23
2018-09-30T23:19:00.772Z,23.57
2018-09-30T23:21:27.935Z,22.97
2018-09-30T23:23:55.065Z,23.57
2018-09-30T23:26:22.220Z,23.33
2018-09-30T23:28:49.377Z,25.57
2018-09-30T23:31:16.557Z,23.80
2018-09-30T23:33:43.636Z,20.87
2018-09-30T23:36:10.781Z,22.00
2018-09-30T23:38:37.936Z,19.37
2018-09-30T23:41:05.260Z,21.00
2018-09-30T23:43:32.439Z,21.87
2018-09-30T23:45:59.655Z,18.20
2018-09-30T23:48:26.813Z,17.93
2018-09-30T23:50:54.105Z,16.07
2018-09-30T23:53:21.229Z,16.07
2018-09-30T23:55:48.345Z,18.30
2018-09-30T23:58:21.296Z,14.70
